Time;durP1;ratioP1;P1;durP2;ratioP2;P2;SDS_P1;SDS_P2;PMS_P1;PMS_P2;Temp;Humidity;BMP_temperature;BMP_pressure;BME280_temperature;BME280_humidity;BME280_pressure;Samples;Min_cycle;Max_cycle;Signal;HPM_P1;HPM_P2
2022/06/29 00:00:36;;;;;;;0.98;0.90;;;19.20;99.90;19.30;100838.00;;;;4934659;28;88048;-60
2022/06/29 00:03:02;;;;;;;2.95;1.35;;;19.20;99.90;19.30;100826.00;;;;4935532;28;109388;-59
2022/06/29 00:05:29;;;;;;;1.63;1.27;;;19.20;99.90;19.30;100829.00;;;;4934960;28;87447;-59
2022/06/29 00:07:55;;;;;;;0.93;0.90;;;19.20;99.90;19.30;100824.00;;;;4934887;28;88734;-59
2022/06/29 00:10:22;;;;;;;1.52;1.42;;;19.20;99.90;19.30;100826.00;;;;4935174;28;88368;-59
2022/06/29 00:12:48;;;;;;;1.58;1.38;;;19.20;99.90;19.30;100827.00;;;;4935983;28;87418;-60
2022/06/29 00:15:15;;;;;;;4.70;1.75;;;19.20;99.90;19.40;100821.00;;;;4933871;28;99556;-60
2022/06/29 00:17:42;;;;;;;0.75;0.75;;;19.20;99.90;19.30;100802.00;;;;4935371;28;88959;-60
2022/06/29 00:20:12;;;;;;;1.50;1.40;;;19.20;99.90;19.40;100795.00;;;;4934577;28;88416;-59
2022/06/29 00:22:39;;;;;;;2.22;1.42;;;19.20;99.90;19.40;100797.00;;;;4935089;28;86997;-59
2022/06/29 00:25:06;;;;;;;1.45;1.35;;;19.20;99.90;19.40;100800.00;;;;4935003;28;87491;-60
2022/06/29 00:27:32;;;;;;;1.35;1.25;;;19.20;99.90;19.40;100791.00;;;;4935172;28;86702;-60
2022/06/29 00:29:59;;;;;;;1.38;1.20;;;19.20;99.90;19.40;100795.00;;;;4934611;28;87859;-59
2022/06/29 00:32:24;;;;;;;1.13;1.02;;;19.20;99.90;19.40;100783.00;;;;4935466;28;87574;-59
2022/06/29 00:34:50;;;;;;;1.45;0.88;;;19.20;99.90;19.40;100776.00;;;;4915127;28;107889;-60
2022/06/29 00:37:22;;;;;;;1.92;1.40;;;19.20;99.90;19.40;100771.00;;;;4934468;28;116515;-58
2022/06/29 00:39:51;;;;;;;4.30;1.63;;;19.20;99.90;19.40;100765.00;;;;4916968;28;92894;-60
2022/06/29 00:42:16;;;;;;;2.15;1.92;;;19.20;99.90;19.30;100768.00;;;;4935351;28;87661;-58
2022/06/29 00:44:42;;;;;;;2.55;2.25;;;19.20;99.90;19.40;100770.00;;;;4934669;28;108587;-59
2022/06/29 00:47:08;;;;;;;1.33;1.23;;;19.20;99.90;19.30;100762.00;;;;4933554;28;116707;-59
2022/06/29 00:49:34;;;;;;;2.15;1.20;;;19.20;99.90;19.30;100782.00;;;;4934357;28;117480;-59
2022/06/29 00:52:14;;;;;;;1.25;1.15;;;19.20;99.90;19.30;100782.00;;;;4934211;28;97692;-58
2022/06/29 00:54:47;;;;;;;1.15;1.08;;;19.20;99.90;19.30;100786.00;;;;4934464;28;87219;-59
2022/06/29 00:57:21;;;;;;;2.00;1.23;;;19.20;99.90;19.30;100777.00;;;;4934258;28;88385;-59
2022/06/29 00:59:50;;;;;;;1.35;0.80;;;19.20;99.90;19.30;100779.00;;;;4934214;28;88341;-58
2022/06/29 01:02:20;;;;;;;1.73;1.20;;;19.20;99.90;19.30;100787.00;;;;4935835;28;87054;-59
2022/06/29 01:04:47;;;;;;;0.95;0.93;;;19.20;99.90;19.30;100787.00;;;;4935108;28;86784;-58
2022/06/29 01:07:15;;;;;;;1.48;1.20;;;19.20;99.90;19.30;100784.00;;;;4934628;28;87608;-58
2022/06/29 01:09:43;;;;;;;0.98;0.73;;;19.10;99.90;19.30;100789.00;;;;4933609;28;110811;-59
2022/06/29 01:12:09;;;;;;;0.93;0.90;;;19.10;99.90;19.30;100789.00;;;;4934983;28;86993;-59
2022/06/29 01:14:35;;;;;;;1.20;1.00;;;19.10;99.90;19.30;100793.00;;;;4948876;28;98293;-59
2022/06/29 01:17:01;;;;;;;0.88;0.85;;;19.10;99.90;19.30;100789.00;;;;4934123;28;116864;-59
2022/06/29 01:19:27;;;;;;;1.77;1.00;;;19.10;99.90;19.30;100799.00;;;;4934407;28;87285;-59
2022/06/29 01:21:55;;;;;;;0.90;0.80;;;19.10;99.90;19.40;100795.00;;;;4934034;28;110476;-60
2022/06/29 01:24:22;;;;;;;1.23;1.02;;;19.20;99.90;19.40;100793.00;;;;4933927;28;87862;-59
2022/06/29 01:26:49;;;;;;;1.17;0.73;;;19.20;99.90;19.40;100806.00;;;;4933013;28;101685;-59
2022/06/29 01:29:16;;;;;;;1.15;1.05;;;19.20;99.90;19.40;100801.00;;;;4934382;28;87432;-60
2022/06/29 01:31:43;;;;;;;1.52;1.00;;;19.20;99.90;19.50;100801.00;;;;4935548;28;87622;-60
2022/06/29 01:34:15;;;;;;;1.90;1.30;;;19.30;99.90;19.50;100806.00;;;;4934044;28;86937;-60
2022/06/29 01:36:41;;;;;;;3.67;1.83;;;19.30;99.90;19.50;100804.00;;;;4933311;28;118199;-58
2022/06/29 01:39:06;;;;;;;1.67;1.40;;;19.40;99.90;19.60;100800.00;;;;4932473;28;116634;-59
2022/06/29 01:41:32;;;;;;;1.35;0.98;;;19.40;99.90;19.60;100798.00;;;;4933830;28;110285;-59
2022/06/29 01:43:58;;;;;;;2.40;1.20;;;19.40;99.90;19.70;100813.00;;;;4933999;28;87314;-60
2022/06/29 01:46:23;;;;;;;1.60;1.40;;;19.50;99.90;19.70;100812.00;;;;4934280;28;98997;-59
2022/06/29 01:48:49;;;;;;;0.80;0.80;;;19.50;99.90;19.70;100809.00;;;;4932020;28;116377;-60
2022/06/29 01:51:15;;;;;;;1.90;1.40;;;19.50;99.90;19.70;100818.00;;;;4933550;28;108190;-60
2022/06/29 01:53:41;;;;;;;1.40;1.15;;;19.60;99.90;19.80;100808.00;;;;4932960;28;109061;-62
2022/06/29 01:56:06;;;;;;;1.05;0.95;;;19.60;99.90;19.80;100805.00;;;;4933864;28;87661;-60
2022/06/29 01:58:32;;;;;;;1.73;1.45;;;19.60;99.90;19.80;100801.00;;;;4932952;28;88135;-59
2022/06/29 02:00:58;;;;;;;1.17;1.08;;;19.60;99.90;19.80;100797.00;;;;4933806;28;110437;-59
2022/06/29 02:03:23;;;;;;;2.03;1.67;;;19.70;99.90;19.90;100795.00;;;;4932817;28;106615;-57
2022/06/29 02:05:49;;;;;;;1.50;1.40;;;19.70;99.90;19.90;100796.00;;;;4933207;28;116933;-59
2022/06/29 02:08:15;;;;;;;2.78;1.55;;;19.70;99.90;19.90;100792.00;;;;4933114;28;87838;-59
2022/06/29 02:10:40;;;;;;;1.35;1.25;;;19.70;99.90;19.90;100787.00;;;;4933747;28;88941;-59
2022/06/29 02:13:06;;;;;;;2.13;1.60;;;19.70;99.90;19.90;100789.00;;;;4932479;28;88073;-60
2022/06/29 02:15:32;;;;;;;1.45;1.23;;;19.70;99.90;19.90;100786.00;;;;4933344;28;118074;-59
2022/06/29 02:17:58;;;;;;;1.42;1.33;;;19.70;99.90;19.90;100794.00;;;;4933210;28;88480;-59
2022/06/29 02:20:23;;;;;;;1.65;1.52;;;19.70;99.90;19.90;100791.00;;;;4932434;28;101397;-59
2022/06/29 02:22:49;;;;;;;3.22;1.92;;;19.70;99.90;19.90;100780.00;;;;4932632;28;105858;-59
2022/06/29 02:25:15;;;;;;;2.83;2.47;;;19.70;99.90;19.90;100788.00;;;;4932438;28;107242;-59
2022/06/29 02:27:44;;;;;;;3.25;2.33;;;19.80;99.90;19.90;100782.00;;;;4932790;28;106758;-60
2022/06/29 02:30:14;;;;;;;1.85;1.70;;;19.80;99.90;20.00;100790.00;;;;4934228;28;86828;-59
2022/06/29 02:35:27;;;;;;;3.25;2.28;;;19.80;99.90;20.00;100785.00;;;;4930350;28;87723;-60
2022/06/29 02:37:52;;;;;;;1.73;1.35;;;19.80;99.90;20.00;100783.00;;;;4932143;28;89611;-59
2022/06/29 02:40:18;;;;;;;8.57;2.25;;;19.80;99.90;20.00;100786.00;;;;4931542;28;110967;-58
2022/06/29 02:42:44;;;;;;;4.25;2.10;;;19.80;99.90;20.00;100774.00;;;;4932503;28;107762;-59
2022/06/29 02:45:10;;;;;;;2.35;2.00;;;19.80;99.90;20.00;100779.00;;;;4932898;28;116428;-59
2022/06/29 02:47:35;;;;;;;2.58;1.48;;;19.80;99.90;20.00;100777.00;;;;4932763;28;92061;-59
2022/06/29 02:50:01;;;;;;;2.17;1.92;;;19.80;99.90;20.00;100780.00;;;;4932333;28;108959;-57
2022/06/29 02:52:27;;;;;;;2.22;1.77;;;19.80;99.90;20.00;100774.00;;;;4933149;28;87600;-60
2022/06/29 02:54:52;;;;;;;2.38;2.17;;;19.80;99.90;20.00;100770.00;;;;4932913;28;115516;-59
2022/06/29 02:57:20;;;;;;;2.78;2.22;;;19.80;99.90;20.00;100770.00;;;;4931382;28;116856;-59
2022/06/29 02:59:46;;;;;;;2.65;2.05;;;19.80;99.90;19.90;100766.00;;;;4933631;28;87494;-57
2022/06/29 03:02:12;;;;;;;3.47;2.38;;;19.80;99.90;19.90;100764.00;;;;4932647;28;88261;-58
2022/06/29 03:04:37;;;;;;;3.20;1.90;;;19.80;99.90;20.00;100754.00;;;;4932114;28;114125;-58
2022/06/29 03:07:03;;;;;;;3.72;2.58;;;19.70;99.90;19.90;100759.00;;;;4931987;28;117060;-59
2022/06/29 03:09:29;;;;;;;2.80;2.40;;;19.70;99.90;19.90;100764.00;;;;4932137;28;109547;-59
2022/06/29 03:11:55;;;;;;;2.35;2.15;;;19.70;99.90;19.90;100763.00;;;;4930620;28;98472;-59
2022/06/29 03:14:20;;;;;;;2.63;2.30;;;19.70;99.90;20.00;100764.00;;;;4933801;28;117712;-58
2022/06/29 03:16:46;;;;;;;2.05;1.75;;;19.80;99.90;20.00;100750.00;;;;4936091;28;88436;-60
2022/06/29 03:19:12;;;;;;;2.83;2.15;;;19.80;99.90;20.00;100756.00;;;;4935818;28;110079;-60
2022/06/29 03:21:37;;;;;;;3.28;2.22;;;19.70;99.90;20.00;100758.00;;;;4935918;28;107879;-59
2022/06/29 03:24:04;;;;;;;5.32;2.42;;;19.70;99.90;20.00;100752.00;;;;4934569;28;116776;-60
2022/06/29 03:26:30;;;;;;;2.53;2.00;;;19.80;99.90;20.00;100756.00;;;;4935221;28;89383;-60
2022/06/29 03:28:56;;;;;;;2.45;2.22;;;19.80;99.90;20.00;100755.00;;;;4934881;28;100954;-60
2022/06/29 03:31:23;;;;;;;3.20;2.83;;;19.80;99.90;20.00;100763.00;;;;4936555;28;87416;-59
2022/06/29 03:34:07;;;;;;;3.17;2.40;;;19.80;99.90;20.00;100772.00;;;;4941687;28;116720;-59
2022/06/29 03:36:33;;;;;;;2.80;2.60;;;19.80;99.90;20.00;100771.00;;;;4935607;28;88312;-60
2022/06/29 03:38:59;;;;;;;5.07;2.53;;;19.80;99.90;20.00;100764.00;;;;4935812;28;87224;-59
2022/06/29 03:41:25;;;;;;;6.93;2.22;;;19.80;99.90;20.00;100767.00;;;;4935265;28;109061;-59
2022/06/29 03:43:50;;;;;;;3.55;2.30;;;19.80;99.90;20.00;100779.00;;;;4935542;28;118156;-60
2022/06/29 03:46:16;;;;;;;2.47;2.05;;;19.80;99.90;20.10;100778.00;;;;4935267;28;87566;-60
2022/06/29 03:48:42;;;;;;;2.65;2.17;;;19.90;99.90;20.10;100769.00;;;;4937250;28;88015;-58
2022/06/29 03:51:08;;;;;;;5.28;2.55;;;19.90;99.90;20.10;100762.00;;;;4934926;28;88132;-60
2022/06/29 03:53:34;;;;;;;2.15;1.70;;;19.90;99.90;20.10;100778.00;;;;4936158;28;88444;-59
2022/06/29 03:56:00;;;;;;;4.10;2.13;;;19.90;99.90;20.10;100778.00;;;;4935415;28;88389;-60
2022/06/29 03:58:26;;;;;;;2.30;2.10;;;19.90;99.90;20.20;100774.00;;;;4935890;28;87314;-60
2022/06/29 04:00:52;;;;;;;2.92;2.72;;;19.90;99.90;20.10;100767.00;;;;4935556;28;87482;-58
2022/06/29 04:03:17;;;;;;;5.72;2.30;;;19.90;99.90;20.10;100774.00;;;;4934557;28;118513;-60
2022/06/29 04:05:43;;;;;;;1.98;1.77;;;19.90;99.90;20.20;100785.00;;;;4934357;28;116244;-59
2022/06/29 04:08:10;;;;;;;1.77;1.67;;;19.90;99.90;20.20;100785.00;;;;4935711;28;87154;-60
2022/06/29 04:10:36;;;;;;;2.58;2.00;;;19.90;99.90;20.20;100791.00;;;;4935909;28;87091;-60
2022/06/29 04:13:02;;;;;;;3.58;1.83;;;20.00;99.90;20.20;100790.00;;;;4934410;28;108898;-60
2022/06/29 04:15:27;;;;;;;2.10;1.90;;;20.00;99.90;20.10;100784.00;;;;4934112;28;88829;-60
2022/06/29 04:17:53;;;;;;;2.47;2.10;;;20.00;99.90;20.20;100790.00;;;;4934625;28;109380;-60
2022/06/29 04:23:06;;;;;;;2.03;1.85;;;20.00;99.90;20.10;100787.00;;;;4934109;28;87252;-59
2022/06/29 04:25:32;;;;;;;2.75;2.28;;;20.00;99.90;20.10;100789.00;;;;4934405;28;87148;-60
2022/06/29 04:27:58;;;;;;;2.40;2.13;;;19.90;99.90;20.10;100784.00;;;;4933135;28;109373;-59
2022/06/29 04:30:23;;;;;;;2.05;1.75;;;19.90;99.90;20.10;100776.00;;;;4934640;28;87551;-60
2022/06/29 04:32:49;;;;;;;4.05;1.73;;;19.90;99.90;20.00;100785.00;;;;4934381;28;114554;-60
2022/06/29 04:35:15;;;;;;;4.43;2.00;;;19.90;99.90;20.00;100777.00;;;;4934175;28;115659;-59
2022/06/29 04:37:40;;;;;;;1.73;1.63;;;19.80;99.90;20.00;100782.00;;;;4933916;28;110863;-60
2022/06/29 04:40:07;;;;;;;2.85;2.28;;;19.80;99.90;19.90;100779.00;;;;4932321;28;108000;-60
2022/06/29 04:42:32;;;;;;;1.88;1.55;;;19.70;99.90;19.90;100779.00;;;;4934619;28;89463;-61
2022/06/29 04:44:58;;;;;;;2.40;1.75;;;19.70;99.90;19.90;100787.00;;;;4933217;28;116356;-59
2022/06/29 04:47:24;;;;;;;2.00;1.85;;;19.70;99.90;19.80;100783.00;;;;4934050;28;110060;-59
2022/06/29 04:49:49;;;;;;;2.08;1.95;;;19.60;99.90;19.70;100789.00;;;;4934423;28;108096;-60
2022/06/29 04:52:15;;;;;;;3.15;1.83;;;19.60;99.90;19.70;100780.00;;;;4932924;28;118558;-60
2022/06/29 04:54:43;;;;;;;4.43;2.08;;;19.60;99.90;19.70;100771.00;;;;4934615;28;116708;-60
2022/06/29 04:57:09;;;;;;;5.57;1.95;;;19.50;99.90;19.70;100771.00;;;;4933855;28;102287;-60
2022/06/29 04:59:35;;;;;;;2.08;1.48;;;19.50;99.90;19.60;100771.00;;;;4935005;28;87322;-60
2022/06/29 05:02:00;;;;;;;2.80;2.00;;;19.60;99.90;19.60;100780.00;;;;4934158;28;116472;-60
2022/06/29 05:04:26;;;;;;;2.08;1.17;;;19.40;99.90;19.50;100783.00;;;;4933301;28;117165;-60
2022/06/29 05:06:52;;;;;;;2.90;2.15;;;19.40;99.90;19.50;100785.00;;;;4932287;28;109271;-60
2022/06/29 05:09:17;;;;;;;4.15;2.45;;;19.30;99.90;19.40;100786.00;;;;4945728;28;107649;-62
2022/06/29 05:11:43;;;;;;;2.13;1.95;;;19.30;99.90;19.30;100779.00;;;;4933583;28;117482;-63
2022/06/29 05:14:10;;;;;;;2.58;2.33;;;19.20;99.90;19.10;100782.00;;;;4933825;28;116350;-65
2022/06/29 05:16:36;;;;;;;2.47;2.13;;;19.00;99.90;18.90;100786.00;;;;4935816;28;88050;-63
2022/06/29 05:19:02;;;;;;;2.80;2.42;;;18.90;99.90;18.80;100789.00;;;;4934385;28;86886;-63
2022/06/29 05:21:27;;;;;;;5.05;3.28;;;18.70;99.90;18.60;100791.00;;;;4933550;28;115765;-63
2022/06/29 05:23:53;;;;;;;4.03;2.97;;;18.50;99.90;18.50;100787.00;;;;4934550;28;86899;-63
2022/06/29 05:26:19;;;;;;;2.13;1.75;;;18.40;99.90;18.40;100773.00;;;;4916404;28;87621;-63
2022/06/29 05:28:45;;;;;;;3.70;2.70;;;18.30;99.90;18.30;100779.00;;;;4934153;28;88397;-64
2022/06/29 05:31:17;;;;;;;3.58;3.28;;;18.20;99.90;18.20;100764.00;;;;4933270;28;117233;-64
2022/06/29 05:33:43;;;;;;;5.53;2.53;;;18.10;99.90;18.20;100764.00;;;;4933972;28;88768;-64
2022/06/29 05:36:12;;;;;;;3.30;1.92;;;18.30;99.90;18.10;100762.00;;;;4932704;28;103008;-63
2022/06/29 05:38:38;;;;;;;4.90;2.35;;;18.10;99.90;18.10;100764.00;;;;4933527;28;99849;-63
2022/06/29 05:41:04;;;;;;;2.90;2.70;;;18.00;99.90;18.10;100750.00;;;;4932604;28;116766;-63
2022/06/29 05:43:31;;;;;;;3.20;1.98;;;18.00;99.90;18.00;100758.00;;;;4933859;28;87417;-63
2022/06/29 05:45:58;;;;;;;2.70;2.33;;;17.90;99.90;17.90;100747.00;;;;4936435;28;86412;-63
2022/06/29 05:48:41;;;;;;;2.20;1.75;;;17.80;99.90;17.90;100751.00;;;;4935216;28;87461;-63
2022/06/29 05:51:07;;;;;;;3.55;2.50;;;17.80;99.90;17.90;100744.00;;;;4935241;28;116278;-64
2022/06/29 05:53:33;;;;;;;2.65;1.85;;;17.70;99.90;17.80;100757.00;;;;4933511;28;115020;-63
2022/06/29 05:55:59;;;;;;;2.35;1.98;;;17.70;99.90;17.80;100755.00;;;;4932256;28;87888;-63
2022/06/29 05:58:25;;;;;;;2.80;1.75;;;17.70;99.90;17.80;100772.00;;;;4933750;28;95212;-63
2022/06/29 06:00:51;;;;;;;5.97;2.85;;;17.70;99.90;17.80;100765.00;;;;4933607;28;88541;-63
2022/06/29 06:03:17;;;;;;;2.92;2.40;;;17.60;99.90;17.80;100754.00;;;;4932426;28;118495;-64
2022/06/29 06:05:43;;;;;;;4.47;1.58;;;17.60;99.90;17.80;100765.00;;;;4933590;28;87017;-64
2022/06/29 06:08:09;;;;;;;3.40;1.73;;;17.60;99.90;17.80;100764.00;;;;4933352;28;109879;-63
2022/06/29 06:10:35;;;;;;;2.17;1.98;;;17.60;99.90;17.80;100765.00;;;;4934119;28;86685;-64
2022/06/29 06:13:02;;;;;;;1.30;1.20;;;17.60;99.90;17.80;100758.00;;;;4933710;28;92000;-64
2022/06/29 06:15:28;;;;;;;1.83;1.73;;;17.70;99.90;17.80;100763.00;;;;4933643;28;87023;-64
2022/06/29 06:17:54;;;;;;;3.00;1.95;;;17.70;99.90;17.80;100759.00;;;;4932080;28;100305;-64
2022/06/29 06:20:20;;;;;;;2.40;1.42;;;17.70;99.90;17.90;100751.00;;;;4933700;28;87718;-64
2022/06/29 06:22:46;;;;;;;2.42;2.22;;;17.70;99.90;17.90;100746.00;;;;4934321;28;88328;-65
2022/06/29 06:25:11;;;;;;;2.45;1.60;;;17.70;99.90;17.90;100751.00;;;;4933736;28;86913;-65
2022/06/29 06:27:37;;;;;;;3.42;1.25;;;17.70;99.90;18.00;100739.00;;;;4932242;28;109320;-64
2022/06/29 06:30:03;;;;;;;1.48;1.38;;;17.80;99.90;18.00;100742.00;;;;4932716;28;90335;-64
2022/06/29 06:32:29;;;;;;;2.97;1.58;;;17.80;99.90;18.10;100744.00;;;;4932670;28;98705;-64
2022/06/29 06:34:55;;;;;;;2.22;1.38;;;17.90;99.90;18.10;100748.00;;;;4932852;28;109228;-64
2022/06/29 06:37:20;;;;;;;1.42;1.30;;;17.90;99.90;18.20;100750.00;;;;4932521;28;107881;-66
2022/06/29 06:41:21;;;;;;;1.52;1.17;;;18.00;99.90;18.20;100753.00;;;;4929964;28;116760;-66
2022/06/29 06:42:32;;;;;;;1.42;1.33;;;18.10;99.90;18.30;100761.00;;;;4933027;28;88691;-66
2022/06/29 06:44:57;;;;;;;1.75;1.65;;;18.10;99.90;18.30;100751.00;;;;4932818;28;88473;-65
2022/06/29 06:47:23;;;;;;;1.20;1.10;;;18.20;99.90;18.40;100761.00;;;;4932838;28;87599;-65
2022/06/29 06:49:49;;;;;;;1.83;1.45;;;18.20;99.90;18.40;100770.00;;;;4932855;28;117207;-64
2022/06/29 06:52:17;;;;;;;1.40;1.23;;;18.20;99.90;18.50;100775.00;;;;4936990;28;87814;-64
2022/06/29 06:54:44;;;;;;;1.50;1.40;;;18.30;99.90;18.50;100780.00;;;;4936839;28;87149;-65
2022/06/29 06:57:11;;;;;;;1.73;1.38;;;18.30;99.90;18.50;100779.00;;;;4936238;28;87240;-64
2022/06/29 06:59:38;;;;;;;1.48;1.20;;;18.30;99.90;18.50;100774.00;;;;4936491;28;86975;-65
2022/06/29 07:02:04;;;;;;;1.58;1.48;;;18.30;99.90;18.50;100781.00;;;;4901142;28;86907;-64
2022/06/29 07:04:29;;;;;;;1.85;1.75;;;18.30;99.90;18.60;100782.00;;;;4935154;28;109723;-65
2022/06/29 07:06:55;;;;;;;2.20;1.50;;;18.40;99.90;18.60;100780.00;;;;4935651;28;88755;-65
2022/06/29 07:09:21;;;;;;;2.80;1.65;;;18.40;99.90;18.60;100772.00;;;;4933984;28;117139;-65
2022/06/29 07:11:46;;;;;;;1.35;1.25;;;18.40;99.90;18.60;100781.00;;;;4934477;28;116328;-65
2022/06/29 07:14:12;;;;;;;2.83;2.00;;;18.50;99.90;18.70;100780.00;;;;4935502;28;109288;-65
2022/06/29 07:16:38;;;;;;;1.65;1.55;;;18.50;99.90;18.70;100779.00;;;;4935349;28;107765;-65
2022/06/29 07:19:04;;;;;;;2.22;1.95;;;18.50;99.90;18.70;100772.00;;;;4916978;28;92287;-65
2022/06/29 07:21:29;;;;;;;1.48;1.30;;;18.50;99.90;18.70;100764.00;;;;4934559;28;117552;-65
2022/06/29 07:23:58;;;;;;;2.08;1.88;;;18.50;99.90;18.70;100768.00;;;;4935890;28;108999;-66
2022/06/29 07:26:27;;;;;;;3.17;1.77;;;18.50;99.90;18.70;100763.00;;;;4935683;28;87678;-65
2022/06/29 07:28:52;;;;;;;2.10;1.58;;;18.50;99.90;18.70;100765.00;;;;4935078;28;88581;-65
2022/06/29 07:31:18;;;;;;;2.63;2.42;;;18.50;99.90;18.70;100753.00;;;;4917469;28;88381;-65
2022/06/29 07:33:44;;;;;;;3.63;1.77;;;18.60;99.90;18.70;100761.00;;;;4934752;28;110281;-66
2022/06/29 07:36:10;;;;;;;2.03;1.55;;;18.60;99.90;18.80;100752.00;;;;4918081;28;87387;-67
2022/06/29 07:38:36;;;;;;;2.65;2.40;;;18.50;99.90;18.70;100757.00;;;;4933870;28;117525;-67
2022/06/29 07:41:02;;;;;;;3.00;1.98;;;18.50;99.90;18.70;100751.00;;;;4935374;28;100991;-66
2022/06/29 07:43:29;;;;;;;2.05;1.75;;;18.50;99.90;18.70;100757.00;;;;4935184;28;101502;-67
2022/06/29 07:45:57;;;;;;;2.55;2.08;;;18.50;99.90;18.70;100760.00;;;;4918464;28;98175;-66
2022/06/29 07:48:24;;;;;;;6.95;1.88;;;18.50;99.90;18.70;100769.00;;;;4933544;28;87064;-65
2022/06/29 07:50:50;;;;;;;2.22;2.03;;;18.50;99.90;18.80;100764.00;;;;4936119;28;92634;-66
2022/06/29 07:53:16;;;;;;;3.45;2.08;;;18.60;99.90;18.80;100760.00;;;;4935887;28;87404;-67
2022/06/29 07:55:44;;;;;;;3.28;1.88;;;18.60;99.90;18.80;100759.00;;;;4950047;28;88487;-66
2022/06/29 07:58:12;;;;;;;2.55;2.00;;;18.60;99.90;18.90;100765.00;;;;4949238;28;87213;-67
2022/06/29 08:00:38;;;;;;;2.42;1.85;;;18.70;99.90;18.90;100765.00;;;;4934638;28;87386;-66
2022/06/29 08:03:04;;;;;;;2.20;2.00;;;18.70;99.90;19.00;100762.00;;;;4934047;28;110502;-67
2022/06/29 08:05:33;;;;;;;1.88;1.65;;;18.80;99.90;19.00;100752.00;;;;4935711;28;87254;-65
2022/06/29 08:08:06;;;;;;;3.80;1.75;;;18.80;99.90;19.00;100762.00;;;;4934545;28;101449;-66
2022/06/29 08:10:32;;;;;;;3.05;2.30;;;18.80;99.90;19.10;100761.00;;;;4935477;28;86931;-67
2022/06/29 08:13:29;;;;;;;3.67;2.47;;;18.90;99.90;19.10;100765.00;;;;4918208;28;86639;-67
2022/06/29 08:15:55;;;;;;;2.38;2.10;;;18.90;99.90;19.10;100766.00;;;;4948970;28;108724;-66
2022/06/29 08:18:21;;;;;;;3.35;2.28;;;18.90;99.90;19.10;100767.00;;;;4933488;28;115506;-66
2022/06/29 08:20:47;;;;;;;2.35;1.75;;;18.90;99.90;19.10;100760.00;;;;4935147;28;88102;-65
2022/06/29 08:23:12;;;;;;;4.22;2.08;;;19.00;99.90;19.10;100768.00;;;;4933698;28;110325;-66
2022/06/29 08:25:38;;;;;;;3.85;3.05;;;19.00;99.90;19.20;100776.00;;;;4935777;28;87273;-66
2022/06/29 08:28:05;;;;;;;1.98;1.73;;;19.00;99.90;19.20;100776.00;;;;4933458;28;117544;-66
2022/06/29 08:30:32;;;;;;;3.17;2.63;;;19.00;99.90;19.20;100772.00;;;;4935500;28;87677;-66
2022/06/29 08:32:57;;;;;;;2.60;1.45;;;19.00;99.90;19.20;100778.00;;;;4933796;28;98853;-65
2022/06/29 08:35:23;;;;;;;1.90;1.73;;;19.00;99.90;19.20;100781.00;;;;4933896;28;107068;-65
2022/06/29 08:37:49;;;;;;;2.58;2.38;;;19.00;99.90;19.20;100784.00;;;;4916870;28;86829;-65
2022/06/29 08:40:17;;;;;;;3.00;2.53;;;19.00;99.90;19.20;100781.00;;;;4934523;28;87563;-64
2022/06/29 08:42:44;;;;;;;3.08;2.28;;;19.00;99.90;19.20;100778.00;;;;4934322;28;87032;-64
2022/06/29 08:45:43;;;;;;;4.18;2.58;;;19.00;99.90;19.20;100774.00;;;;4934441;28;87763;-63
2022/06/29 08:48:11;;;;;;;1.50;1.40;;;19.10;99.90;19.30;100773.00;;;;4915940;28;88529;-63
2022/06/29 08:50:38;;;;;;;1.60;1.50;;;19.10;99.90;19.40;100776.00;;;;4935551;28;88091;-63
2022/06/29 08:53:07;;;;;;;3.22;2.58;;;19.20;99.90;19.40;100776.00;;;;4934228;28;87279;-63
2022/06/29 08:55:38;;;;;;;3.85;1.65;;;19.20;99.90;19.50;100776.00;;;;4935327;28;87389;-63
2022/06/29 08:58:06;;;;;;;3.83;2.28;;;19.30;99.90;19.60;100774.00;;;;4916310;28;88604;-63
2022/06/29 09:00:36;;;;;;;1.98;1.50;;;19.40;99.90;19.70;100773.00;;;;4933808;28;88526;-63
2022/06/29 09:03:04;;;;;;;3.47;2.30;;;19.40;99.90;19.70;100767.00;;;;4934738;28;86289;-63
2022/06/29 09:05:33;;;;;;;2.60;2.00;;;19.50;99.90;19.80;100778.00;;;;4935694;28;86868;-63
2022/06/29 09:07:59;;;;;;;1.92;1.73;;;19.50;99.90;19.80;100771.00;;;;4933064;28;87546;-63
2022/06/29 09:10:29;;;;;;;7.65;2.53;;;19.60;99.90;19.90;100765.00;;;;4934294;28;88457;-63
2022/06/29 09:12:57;;;;;;;3.00;2.30;;;19.60;99.90;19.90;100770.00;;;;4933713;28;87227;-63
2022/06/29 09:15:32;;;;;;;4.50;2.30;;;19.70;99.90;19.90;100759.00;;;;4935663;28;87557;-63
2022/06/29 09:18:00;;;;;;;6.45;1.95;;;19.70;99.90;20.00;100752.00;;;;4934136;28;88308;-62
2022/06/29 09:20:38;;;;;;;2.45;2.10;;;19.80;99.90;20.10;100759.00;;;;4933530;28;94251;-62
2022/06/29 09:23:04;;;;;;;3.55;2.55;;;19.90;99.90;20.30;100764.00;;;;4933710;28;87191;-63
2022/06/29 09:25:32;;;;;;;2.83;2.10;;;20.00;99.90;20.40;100751.00;;;;4934799;28;93683;-62
2022/06/29 09:27:57;;;;;;;2.25;2.05;;;20.10;99.90;20.50;100744.00;;;;4934206;28;87548;-62
2022/06/29 09:30:29;;;;;;;2.13;1.77;;;20.20;99.90;20.60;100753.00;;;;4928479;28;102759;-62
2022/06/29 09:33:05;;;;;;;2.80;1.73;;;20.30;99.90;20.70;100741.00;;;;4931416;28;87223;-63
2022/06/29 09:35:33;;;;;;;3.85;2.97;;;20.40;99.90;20.80;100739.00;;;;4940507;28;88189;-62
2022/06/29 09:38:25;;;;;;;3.28;2.08;;;20.50;99.90;20.90;100738.00;;;;4941337;28;87701;-63
2022/06/29 09:41:12;;;;;;;3.03;2.65;;;20.70;99.90;20.90;100746.00;;;;4945114;28;102755;-63
2022/06/29 09:43:40;;;;;;;2.42;2.22;;;20.60;99.90;20.90;100732.00;;;;4933085;28;102348;-62
2022/06/29 09:46:08;;;;;;;2.42;1.60;;;20.70;99.90;20.90;100744.00;;;;4934585;28;87702;-63
2022/06/29 09:48:36;;;;;;;3.90;2.08;;;20.70;99.90;20.90;100740.00;;;;4933895;28;88683;-62
2022/06/29 09:51:30;;;;;;;1.70;1.60;;;20.70;99.90;20.90;100738.00;;;;4916365;28;87552;-63
2022/06/29 09:53:55;;;;;;;7.15;5.22;;;20.70;99.90;20.90;100741.00;;;;4933786;28;86647;-62
2022/06/29 09:56:22;;;;;;;5.40;3.95;;;20.70;99.90;21.00;100737.00;;;;4915570;28;87681;-62
2022/06/29 09:58:49;;;;;;;7.68;6.35;;;20.80;99.90;21.00;100737.00;;;;4933554;28;87500;-63
2022/06/29 10:04:01;;;;;;;10.73;6.93;;;20.80;99.90;21.10;100735.00;;;;4930923;28;87388;-62
2022/06/29 10:06:28;;;;;;;11.45;7.25;;;20.80;99.90;21.10;100740.00;;;;4915526;28;95633;-62
2022/06/29 10:08:55;;;;;;;8.82;3.88;;;20.80;99.90;21.10;100749.00;;;;4934292;28;88481;-62
2022/06/29 10:14:42;;;;;;;8.50;4.78;;;20.80;99.90;21.00;100745.00;;;;4916783;28;87662;-61
2022/06/29 10:17:58;;;;;;;2.53;2.33;;;20.80;99.90;21.00;100758.00;;;;4932682;28;92130;-62
2022/06/29 10:20:46;;;;;;;2.28;2.17;;;20.80;99.90;20.90;100743.00;;;;4916074;28;95049;-62
2022/06/29 10:23:52;;;;;;;2.33;2.13;;;20.70;99.90;20.70;100743.00;;;;4934293;28;86885;-62
2022/06/29 10:26:36;;;;;;;1.95;1.85;;;20.60;99.90;20.60;100737.00;;;;4937310;28;87417;-62
2022/06/29 10:29:16;;;;;;;2.33;1.55;;;20.50;99.90;20.60;100747.00;;;;4936905;28;88107;-62
2022/06/29 10:31:51;;;;;;;7.85;1.38;;;20.40;99.90;20.50;100748.00;;;;4936027;28;91974;-61
2022/06/29 10:34:30;;;;;;;1.65;1.40;;;20.30;99.90;20.50;100740.00;;;;4936831;28;88356;-61
2022/06/29 10:37:15;;;;;;;2.05;1.83;;;20.30;99.90;20.40;100746.00;;;;4937071;28;87300;-61
2022/06/29 10:39:49;;;;;;;2.08;1.83;;;20.20;99.90;20.40;100739.00;;;;4936151;28;108810;-61
2022/06/29 10:45:16;;;;;;;2.95;1.63;;;20.10;99.90;20.40;100722.00;;;;4933990;28;87417;-61
2022/06/29 10:47:54;;;;;;;1.80;1.30;;;20.20;99.90;20.50;100732.00;;;;4936620;28;86592;-61
2022/06/29 10:50:23;;;;;;;2.10;1.92;;;20.20;99.90;20.50;100718.00;;;;4937759;28;87282;-61
2022/06/29 10:52:52;;;;;;;2.50;1.75;;;20.30;99.90;20.60;100718.00;;;;4935937;28;87883;-61
2022/06/29 10:55:23;;;;;;;2.20;1.70;;;20.30;99.90;20.60;100726.00;;;;4937054;28;88356;-61
2022/06/29 10:57:49;;;;;;;1.33;1.23;;;20.40;99.90;20.70;100731.00;;;;4936626;28;87229;-62
2022/06/29 11:00:21;;;;;;;2.45;1.75;;;20.40;99.90;20.70;100724.00;;;;4936315;28;103461;-61
2022/06/29 11:02:47;;;;;;;1.13;1.13;;;20.50;99.90;20.80;100722.00;;;;4916589;28;108359;-61